sensor_id;sensor_type;location;lat;lon;timestamp;temperature;humidity
22098;DHT22;11215;51.938;8.464;2023-03-12T00:00:11;2.90;68.60
22098;DHT22;11215;51.938;8.464;2023-03-12T00:05:59;2.90;68.60
22098;DHT22;11215;51.938;8.464;2023-03-12T00:11:48;2.90;69.10
22098;DHT22;11215;51.938;8.464;2023-03-12T00:17:36;2.90;68.90
22098;DHT22;11215;51.938;8.464;2023-03-12T00:23:24;3.00;69.10
22098;DHT22;11215;51.938;8.464;2023-03-12T00:29:11;2.90;69.10
22098;DHT22;11215;51.938;8.464;2023-03-12T00:34:59;3.00;69.40
22098;DHT22;11215;51.938;8.464;2023-03-12T00:40:47;3.00;69.50
22098;DHT22;11215;51.938;8.464;2023-03-12T00:46:35;3.10;69.50
22098;DHT22;11215;51.938;8.464;2023-03-12T00:52:22;3.10;69.50
22098;DHT22;11215;51.938;8.464;2023-03-12T01:01:32;3.10;69.20
22098;DHT22;11215;51.938;8.464;2023-03-12T01:07:19;3.10;69.40
22098;DHT22;11215;51.938;8.464;2023-03-12T01:13:07;3.10;69.40
22098;DHT22;11215;51.938;8.464;2023-03-12T01:18:56;3.10;69.20
22098;DHT22;11215;51.938;8.464;2023-03-12T01:24:44;3.10;69.20
22098;DHT22;11215;51.938;8.464;2023-03-12T01:30:32;3.10;69.20
22098;DHT22;11215;51.938;8.464;2023-03-12T01:36:22;3.10;69.20
22098;DHT22;11215;51.938;8.464;2023-03-12T01:42:10;3.10;69.40
22098;DHT22;11215;51.938;8.464;2023-03-12T01:47:58;3.10;69.30
22098;DHT22;11215;51.938;8.464;2023-03-12T01:53:48;3.00;69.10
22098;DHT22;11215;51.938;8.464;2023-03-12T02:06:32;3.00;69.20
22098;DHT22;11215;51.938;8.464;2023-03-12T02:12:39;3.00;69.10
22098;DHT22;11215;51.938;8.464;2023-03-12T02:18:27;2.90;69.20
22098;DHT22;11215;51.938;8.464;2023-03-12T02:30:09;2.90;69.30
22098;DHT22;11215;51.938;8.464;2023-03-12T02:36:01;2.90;69.60
22098;DHT22;11215;51.938;8.464;2023-03-12T02:41:54;2.90;69.80
22098;DHT22;11215;51.938;8.464;2023-03-12T02:47:42;3.00;69.80
22098;DHT22;11215;51.938;8.464;2023-03-12T02:53:29;3.00;70.00
22098;DHT22;11215;51.938;8.464;2023-03-12T02:59:18;3.00;70.10
22098;DHT22;11215;51.938;8.464;2023-03-12T03:08:43;3.00;69.80
22098;DHT22;11215;51.938;8.464;2023-03-12T03:14:37;3.00;69.70
22098;DHT22;11215;51.938;8.464;2023-03-12T03:20:25;3.00;69.70
22098;DHT22;11215;51.938;8.464;2023-03-12T03:26:14;3.00;69.70
22098;DHT22;11215;51.938;8.464;2023-03-12T03:32:01;3.10;69.60
22098;DHT22;11215;51.938;8.464;2023-03-12T03:37:49;3.10;69.50
22098;DHT22;11215;51.938;8.464;2023-03-12T03:43:37;3.10;69.50
22098;DHT22;11215;51.938;8.464;2023-03-12T03:49:24;3.00;69.40
22098;DHT22;11215;51.938;8.464;2023-03-12T03:55:12;3.10;69.50
22098;DHT22;11215;51.938;8.464;2023-03-12T04:00:59;3.10;69.50
22098;DHT22;11215;51.938;8.464;2023-03-12T04:06:47;3.10;69.40
22098;DHT22;11215;51.938;8.464;2023-03-12T04:12:35;3.10;69.40
22098;DHT22;11215;51.938;8.464;2023-03-12T04:18:22;3.10;69.40
22098;DHT22;11215;51.938;8.464;2023-03-12T04:24:13;3.10;69.40
22098;DHT22;11215;51.938;8.464;2023-03-12T04:30:01;3.10;69.40
22098;DHT22;11215;51.938;8.464;2023-03-12T04:35:52;3.10;69.40
22098;DHT22;11215;51.938;8.464;2023-03-12T04:41:39;3.20;69.30
22098;DHT22;11215;51.938;8.464;2023-03-12T04:47:27;3.20;69.20
22098;DHT22;11215;51.938;8.464;2023-03-12T04:59:50;3.20;69.20
22098;DHT22;11215;51.938;8.464;2023-03-12T05:05:37;3.20;69.20
22098;DHT22;11215;51.938;8.464;2023-03-12T05:11:25;3.30;69.20
22098;DHT22;11215;51.938;8.464;2023-03-12T05:17:13;3.30;69.00
22098;DHT22;11215;51.938;8.464;2023-03-12T05:23:00;3.30;68.90
22098;DHT22;11215;51.938;8.464;2023-03-12T05:28:48;3.30;68.90
22098;DHT22;11215;51.938;8.464;2023-03-12T05:34:35;3.30;68.80
22098;DHT22;11215;51.938;8.464;2023-03-12T05:40:23;3.40;68.80
22098;DHT22;11215;51.938;8.464;2023-03-12T05:46:12;3.40;68.80
22098;DHT22;11215;51.938;8.464;2023-03-12T05:52:00;3.40;68.80
22098;DHT22;11215;51.938;8.464;2023-03-12T05:57:47;3.40;68.70
22098;DHT22;11215;51.938;8.464;2023-03-12T06:03:35;3.40;68.60
22098;DHT22;11215;51.938;8.464;2023-03-12T06:09:22;3.50;68.60
22098;DHT22;11215;51.938;8.464;2023-03-12T06:18:33;3.50;68.40
22098;DHT22;11215;51.938;8.464;2023-03-12T06:24:21;3.60;68.50
22098;DHT22;11215;51.938;8.464;2023-03-12T06:30:09;3.60;68.40
22098;DHT22;11215;51.938;8.464;2023-03-12T06:35:59;3.70;68.40
22098;DHT22;11215;51.938;8.464;2023-03-12T06:41:46;3.80;68.20
22098;DHT22;11215;51.938;8.464;2023-03-12T06:47:33;3.80;68.20
22098;DHT22;11215;51.938;8.464;2023-03-12T06:53:22;3.90;68.20
22098;DHT22;11215;51.938;8.464;2023-03-12T06:59:10;4.00;68.10
22098;DHT22;11215;51.938;8.464;2023-03-12T07:04:57;4.00;68.10
22098;DHT22;11215;51.938;8.464;2023-03-12T07:10:45;4.10;68.00
22098;DHT22;11215;51.938;8.464;2023-03-12T07:13:11;4.20;68.40
22098;DHT22;11215;51.938;8.464;2023-03-12T07:15:37;4.20;68.30
22098;DHT22;11215;51.938;8.464;2023-03-12T07:18:11;4.30;68.20
22098;DHT22;11215;51.938;8.464;2023-03-12T07:20:39;4.30;67.90
22098;DHT22;11215;51.938;8.464;2023-03-12T07:23:06;4.40;68.10
22098;DHT22;11215;51.938;8.464;2023-03-12T07:25:39;4.40;68.10
22098;DHT22;11215;51.938;8.464;2023-03-12T07:28:06;4.40;67.90
22098;DHT22;11215;51.938;8.464;2023-03-12T07:30:32;4.50;68.00
22098;DHT22;11215;51.938;8.464;2023-03-12T07:33:00;4.50;67.90
22098;DHT22;11215;51.938;8.464;2023-03-12T07:35:26;4.50;67.90
22098;DHT22;11215;51.938;8.464;2023-03-12T07:37:51;4.60;67.80
22098;DHT22;11215;51.938;8.464;2023-03-12T07:40:17;4.60;67.60
22098;DHT22;11215;51.938;8.464;2023-03-12T07:42:46;4.60;67.60
22098;DHT22;11215;51.938;8.464;2023-03-12T07:45:11;4.70;67.70
22098;DHT22;11215;51.938;8.464;2023-03-12T07:47:37;4.70;67.50
22098;DHT22;11215;51.938;8.464;2023-03-12T07:50:03;4.70;67.40
22098;DHT22;11215;51.938;8.464;2023-03-12T07:52:28;4.80;67.50
22098;DHT22;11215;51.938;8.464;2023-03-12T07:54:54;4.80;67.40
22098;DHT22;11215;51.938;8.464;2023-03-12T07:57:21;4.80;67.40
22098;DHT22;11215;51.938;8.464;2023-03-12T07:59:47;4.80;67.50
22098;DHT22;11215;51.938;8.464;2023-03-12T08:02:13;4.80;67.50
22098;DHT22;11215;51.938;8.464;2023-03-12T08:04:39;4.80;67.50
22098;DHT22;11215;51.938;8.464;2023-03-12T08:07:04;4.90;67.60
22098;DHT22;11215;51.938;8.464;2023-03-12T08:09:30;4.90;67.60
22098;DHT22;11215;51.938;8.464;2023-03-12T08:15:13;5.00;67.20
22098;DHT22;11215;51.938;8.464;2023-03-12T08:17:39;5.10;67.50
22098;DHT22;11215;51.938;8.464;2023-03-12T08:20:06;5.10;67.50
22098;DHT22;11215;51.938;8.464;2023-03-12T08:22:38;5.10;67.50
22098;DHT22;11215;51.938;8.464;2023-03-12T08:25:04;5.20;67.50
22098;DHT22;11215;51.938;8.464;2023-03-12T08:27:30;5.20;67.30
22098;DHT22;11215;51.938;8.464;2023-03-12T08:29:56;5.30;67.30
22098;DHT22;11215;51.938;8.464;2023-03-12T08:32:22;5.30;67.10
22098;DHT22;11215;51.938;8.464;2023-03-12T08:34:47;5.30;67.00
22098;DHT22;11215;51.938;8.464;2023-03-12T08:37:13;5.40;67.00
22098;DHT22;11215;51.938;8.464;2023-03-12T08:39:38;5.40;67.00
22098;DHT22;11215;51.938;8.464;2023-03-12T08:42:04;5.40;66.90
22098;DHT22;11215;51.938;8.464;2023-03-12T08:44:32;5.50;67.10
22098;DHT22;11215;51.938;8.464;2023-03-12T08:46:58;5.50;67.00
22098;DHT22;11215;51.938;8.464;2023-03-12T08:49:23;5.60;67.20
22098;DHT22;11215;51.938;8.464;2023-03-12T08:51:49;5.60;67.00
22098;DHT22;11215;51.938;8.464;2023-03-12T08:54:16;5.70;67.00
22098;DHT22;11215;51.938;8.464;2023-03-12T08:56:42;5.70;66.80
22098;DHT22;11215;51.938;8.464;2023-03-12T08:59:12;5.70;66.70
22098;DHT22;11215;51.938;8.464;2023-03-12T09:01:39;5.80;66.50
22098;DHT22;11215;51.938;8.464;2023-03-12T09:04:05;5.80;66.60
22098;DHT22;11215;51.938;8.464;2023-03-12T09:06:31;5.80;66.60
22098;DHT22;11215;51.938;8.464;2023-03-12T09:08:58;5.90;66.70
22098;DHT22;11215;51.938;8.464;2023-03-12T09:11:30;5.90;66.80
22098;DHT22;11215;51.938;8.464;2023-03-12T09:13:56;5.90;66.80
22098;DHT22;11215;51.938;8.464;2023-03-12T09:16:22;5.90;66.80
22098;DHT22;11215;51.938;8.464;2023-03-12T09:18:47;6.00;67.10
22098;DHT22;11215;51.938;8.464;2023-03-12T09:21:13;6.00;67.10
22098;DHT22;11215;51.938;8.464;2023-03-12T09:23:39;6.00;67.30
22098;DHT22;11215;51.938;8.464;2023-03-12T09:26:11;6.00;67.40
22098;DHT22;11215;51.938;8.464;2023-03-12T09:28:37;6.00;67.60
22098;DHT22;11215;51.938;8.464;2023-03-12T09:31:04;6.00;67.60
22098;DHT22;11215;51.938;8.464;2023-03-12T09:33:30;6.00;67.70
22098;DHT22;11215;51.938;8.464;2023-03-12T09:35:57;6.00;67.90
22098;DHT22;11215;51.938;8.464;2023-03-12T09:38:24;6.00;68.00
22098;DHT22;11215;51.938;8.464;2023-03-12T09:40:49;6.10;68.20
22098;DHT22;11215;51.938;8.464;2023-03-12T09:43:26;6.10;68.30
22098;DHT22;11215;51.938;8.464;2023-03-12T09:45:54;6.00;68.40
22098;DHT22;11215;51.938;8.464;2023-03-12T09:48:39;6.00;68.60
22098;DHT22;11215;51.938;8.464;2023-03-12T09:53:45;6.00;68.90
22098;DHT22;11215;51.938;8.464;2023-03-12T09:56:16;6.00;69.80
22098;DHT22;11215;51.938;8.464;2023-03-12T09:58:43;6.00;69.00
22098;DHT22;11215;51.938;8.464;2023-03-12T10:05:00;5.90;69.30
22098;DHT22;11215;51.938;8.464;2023-03-12T10:07:41;5.90;69.40
22098;DHT22;11215;51.938;8.464;2023-03-12T10:16:27;5.80;69.80
22098;DHT22;11215;51.938;8.464;2023-03-12T10:22:00;5.80;69.70
22098;DHT22;11215;51.938;8.464;2023-03-12T10:27:35;5.70;70.30
22098;DHT22;11215;51.938;8.464;2023-03-12T10:30:04;5.80;69.90
22098;DHT22;11215;51.938;8.464;2023-03-12T10:35:13;5.70;70.20
22098;DHT22;11215;51.938;8.464;2023-03-12T10:38:01;5.70;70.70
22098;DHT22;11215;51.938;8.464;2023-03-12T10:40:28;5.70;70.60
22098;DHT22;11215;51.938;8.464;2023-03-12T10:42:54;5.70;70.80
22098;DHT22;11215;51.938;8.464;2023-03-12T10:48:01;5.70;71.00
22098;DHT22;11215;51.938;8.464;2023-03-12T10:50:33;5.70;71.20
22098;DHT22;11215;51.938;8.464;2023-03-12T10:53:23;5.70;71.30
22098;DHT22;11215;51.938;8.464;2023-03-12T10:56:17;5.70;71.70
22098;DHT22;11215;51.938;8.464;2023-03-12T10:58:49;5.70;71.80
22098;DHT22;11215;51.938;8.464;2023-03-12T11:01:24;5.70;71.50
22098;DHT22;11215;51.938;8.464;2023-03-12T11:03:52;5.70;71.60
22098;DHT22;11215;51.938;8.464;2023-03-12T11:06:25;5.70;71.50
22098;DHT22;11215;51.938;8.464;2023-03-12T11:09:18;5.80;71.80
22098;DHT22;11215;51.938;8.464;2023-03-12T11:11:49;5.80;72.20
22098;DHT22;11215;51.938;8.464;2023-03-12T11:16:43;5.80;71.90
22098;DHT22;11215;51.938;8.464;2023-03-12T11:19:13;5.80;72.20
22098;DHT22;11215;51.938;8.464;2023-03-12T11:21:39;5.80;72.40
22098;DHT22;11215;51.938;8.464;2023-03-12T11:24:18;5.80;73.30
22098;DHT22;11215;51.938;8.464;2023-03-12T11:29:42;5.90;73.20
22098;DHT22;11215;51.938;8.464;2023-03-12T11:35:00;5.90;73.20
22098;DHT22;11215;51.938;8.464;2023-03-12T11:47:43;6.10;73.60
22098;DHT22;11215;51.938;8.464;2023-03-12T11:50:33;6.10;74.00
22098;DHT22;11215;51.938;8.464;2023-03-12T11:53:21;6.10;74.10
22098;DHT22;11215;51.938;8.464;2023-03-12T11:56:08;6.20;73.90
22098;DHT22;11215;51.938;8.464;2023-03-12T11:58:54;6.20;73.80
22098;DHT22;11215;51.938;8.464;2023-03-12T12:04:07;6.30;73.90
22098;DHT22;11215;51.938;8.464;2023-03-12T12:12:40;6.30;74.10
22098;DHT22;11215;51.938;8.464;2023-03-12T12:17:52;6.40;74.50
22098;DHT22;11215;51.938;8.464;2023-03-12T12:20:47;6.40;74.80
22098;DHT22;11215;51.938;8.464;2023-03-12T12:23:26;6.40;75.10
22098;DHT22;11215;51.938;8.464;2023-03-12T12:30:15;6.50;75.00
22098;DHT22;11215;51.938;8.464;2023-03-12T12:38:21;6.60;74.40
22098;DHT22;11215;51.938;8.464;2023-03-12T12:40:50;6.60;74.80
22098;DHT22;11215;51.938;8.464;2023-03-12T12:43:46;6.60;74.80
22098;DHT22;11215;51.938;8.464;2023-03-12T12:46:19;6.70;75.40
22098;DHT22;11215;51.938;8.464;2023-03-12T12:52:11;6.80;75.40
22098;DHT22;11215;51.938;8.464;2023-03-12T12:57:20;6.80;75.50
22098;DHT22;11215;51.938;8.464;2023-03-12T13:02:33;6.90;75.60
22098;DHT22;11215;51.938;8.464;2023-03-12T13:05:02;6.90;75.70
22098;DHT22;11215;51.938;8.464;2023-03-12T13:07:30;7.00;75.80
22098;DHT22;11215;51.938;8.464;2023-03-12T13:09:58;7.00;76.10
22098;DHT22;11215;51.938;8.464;2023-03-12T13:14:51;7.10;76.20
22098;DHT22;11215;51.938;8.464;2023-03-12T13:20:32;7.20;77.00
22098;DHT22;11215;51.938;8.464;2023-03-12T13:33:50;7.50;77.00
22098;DHT22;11215;51.938;8.464;2023-03-12T13:41:36;7.60;77.70
22098;DHT22;11215;51.938;8.464;2023-03-12T13:44:36;7.70;77.10
22098;DHT22;11215;51.938;8.464;2023-03-12T13:47:29;7.80;78.00
22098;DHT22;11215;51.938;8.464;2023-03-12T13:50:03;7.80;77.60
22098;DHT22;11215;51.938;8.464;2023-03-12T13:52:40;7.90;77.40
22098;DHT22;11215;51.938;8.464;2023-03-12T13:58:12;8.00;77.50
22098;DHT22;11215;51.938;8.464;2023-03-12T14:01:04;8.00;78.20
22098;DHT22;11215;51.938;8.464;2023-03-12T14:03:41;8.20;78.20
22098;DHT22;11215;51.938;8.464;2023-03-12T14:06:10;8.20;77.90
22098;DHT22;11215;51.938;8.464;2023-03-12T14:08:40;8.30;77.90
22098;DHT22;11215;51.938;8.464;2023-03-12T14:11:22;8.40;78.00
22098;DHT22;11215;51.938;8.464;2023-03-12T14:19:04;8.60;78.80
22098;DHT22;11215;51.938;8.464;2023-03-12T14:21:34;8.70;78.30
22098;DHT22;11215;51.938;8.464;2023-03-12T14:24:04;8.70;78.60
22098;DHT22;11215;51.938;8.464;2023-03-12T14:26:34;8.80;78.40
22098;DHT22;11215;51.938;8.464;2023-03-12T14:31:34;8.90;78.70
22098;DHT22;11215;51.938;8.464;2023-03-12T14:34:20;9.00;78.50
22098;DHT22;11215;51.938;8.464;2023-03-12T14:37:02;9.00;79.10
22098;DHT22;11215;51.938;8.464;2023-03-12T14:39:41;9.10;78.80
22098;DHT22;11215;51.938;8.464;2023-03-12T14:42:08;9.20;78.70
22098;DHT22;11215;51.938;8.464;2023-03-12T14:44:36;9.20;78.20
22098;DHT22;11215;51.938;8.464;2023-03-12T14:47:07;9.20;78.20
22098;DHT22;11215;51.938;8.464;2023-03-12T14:49:42;9.30;78.20
22098;DHT22;11215;51.938;8.464;2023-03-12T14:52:10;9.30;78.30
22098;DHT22;11215;51.938;8.464;2023-03-12T14:54:36;9.40;78.20
22098;DHT22;11215;51.938;8.464;2023-03-12T14:57:04;9.40;78.10
22098;DHT22;11215;51.938;8.464;2023-03-12T14:59:32;9.40;78.20
22098;DHT22;11215;51.938;8.464;2023-03-12T15:02:17;9.40;78.20
22098;DHT22;11215;51.938;8.464;2023-03-12T15:04:43;9.50;78.80
22098;DHT22;11215;51.938;8.464;2023-03-12T15:07:11;9.50;78.20
22098;DHT22;11215;51.938;8.464;2023-03-12T15:09:42;9.60;78.40
22098;DHT22;11215;51.938;8.464;2023-03-12T15:12:36;9.60;78.60
22098;DHT22;11215;51.938;8.464;2023-03-12T15:15:08;9.70;79.00
22098;DHT22;11215;51.938;8.464;2023-03-12T15:17:35;9.70;78.70
22098;DHT22;11215;51.938;8.464;2023-03-12T15:20:05;9.70;78.40
22098;DHT22;11215;51.938;8.464;2023-03-12T15:22:34;9.80;78.80
22098;DHT22;11215;51.938;8.464;2023-03-12T15:25:01;9.80;78.50
22098;DHT22;11215;51.938;8.464;2023-03-12T15:29:54;9.90;78.50
22098;DHT22;11215;51.938;8.464;2023-03-12T15:32:22;9.90;78.60
22098;DHT22;11215;51.938;8.464;2023-03-12T15:34:52;10.00;78.60
22098;DHT22;11215;51.938;8.464;2023-03-12T15:37:19;10.00;78.60
22098;DHT22;11215;51.938;8.464;2023-03-12T15:39:52;10.10;78.70
22098;DHT22;11215;51.938;8.464;2023-03-12T15:42:22;10.10;79.10
22098;DHT22;11215;51.938;8.464;2023-03-12T15:44:54;10.10;78.70
22098;DHT22;11215;51.938;8.464;2023-03-12T15:47:25;10.20;78.80
22098;DHT22;11215;51.938;8.464;2023-03-12T15:49:56;10.20;78.80
22098;DHT22;11215;51.938;8.464;2023-03-12T15:52:30;10.30;78.90
22098;DHT22;11215;51.938;8.464;2023-03-12T15:57:47;10.30;78.90
22098;DHT22;11215;51.938;8.464;2023-03-12T16:02:58;10.40;78.90
22098;DHT22;11215;51.938;8.464;2023-03-12T16:05:30;10.40;79.10
22098;DHT22;11215;51.938;8.464;2023-03-12T16:07:56;10.50;78.80
22098;DHT22;11215;51.938;8.464;2023-03-12T16:10:25;10.50;78.60
22098;DHT22;11215;51.938;8.464;2023-03-12T16:13:00;10.50;78.50
22098;DHT22;11215;51.938;8.464;2023-03-12T16:15:32;10.50;78.60
22098;DHT22;11215;51.938;8.464;2023-03-12T16:17:58;10.60;78.70
22098;DHT22;11215;51.938;8.464;2023-03-12T16:20:23;10.60;78.40
22098;DHT22;11215;51.938;8.464;2023-03-12T16:22:49;10.60;78.40
22098;DHT22;11215;51.938;8.464;2023-03-12T16:25:15;10.60;78.40
22098;DHT22;11215;51.938;8.464;2023-03-12T16:27:52;10.60;78.40
22098;DHT22;11215;51.938;8.464;2023-03-12T16:30:25;10.60;78.50
22098;DHT22;11215;51.938;8.464;2023-03-12T16:32:51;10.70;78.60
22098;DHT22;11215;51.938;8.464;2023-03-12T16:35:18;10.70;78.40
22098;DHT22;11215;51.938;8.464;2023-03-12T16:37:45;10.70;78.50
22098;DHT22;11215;51.938;8.464;2023-03-12T16:40:12;10.70;78.30
22098;DHT22;11215;51.938;8.464;2023-03-12T16:42:44;10.70;78.30
22098;DHT22;11215;51.938;8.464;2023-03-12T16:45:13;10.70;78.60
22098;DHT22;11215;51.938;8.464;2023-03-12T16:47:40;10.70;78.40
22098;DHT22;11215;51.938;8.464;2023-03-12T16:50:16;10.70;78.30
22098;DHT22;11215;51.938;8.464;2023-03-12T16:52:42;10.70;78.60
22098;DHT22;11215;51.938;8.464;2023-03-12T16:55:08;10.70;78.30
22098;DHT22;11215;51.938;8.464;2023-03-12T16:57:36;10.70;78.40
22098;DHT22;11215;51.938;8.464;2023-03-12T17:00:06;10.70;78.40
22098;DHT22;11215;51.938;8.464;2023-03-12T17:02:33;10.70;78.40
22098;DHT22;11215;51.938;8.464;2023-03-12T17:04:59;10.70;78.40
22098;DHT22;11215;51.938;8.464;2023-03-12T17:07:25;10.70;78.40
22098;DHT22;11215;51.938;8.464;2023-03-12T17:09:51;10.80;78.60
22098;DHT22;11215;51.938;8.464;2023-03-12T17:12:31;10.80;78.70
22098;DHT22;11215;51.938;8.464;2023-03-12T17:14:58;10.80;79.10
22098;DHT22;11215;51.938;8.464;2023-03-12T17:17:24;10.80;79.40
22098;DHT22;11215;51.938;8.464;2023-03-12T17:19:50;10.80;78.60
22098;DHT22;11215;51.938;8.464;2023-03-12T17:22:18;10.80;78.60
22098;DHT22;11215;51.938;8.464;2023-03-12T17:24:43;10.80;78.60
22098;DHT22;11215;51.938;8.464;2023-03-12T17:27:14;10.80;78.50
22098;DHT22;11215;51.938;8.464;2023-03-12T17:29:39;10.80;78.50
22098;DHT22;11215;51.938;8.464;2023-03-12T17:32:05;10.80;78.40
22098;DHT22;11215;51.938;8.464;2023-03-12T17:34:31;10.80;78.50
22098;DHT22;11215;51.938;8.464;2023-03-12T17:36:57;10.90;78.50
22098;DHT22;11215;51.938;8.464;2023-03-12T17:39:24;10.80;78.50
22098;DHT22;11215;51.938;8.464;2023-03-12T17:41:49;10.80;78.50
22098;DHT22;11215;51.938;8.464;2023-03-12T17:44:15;10.90;78.70
22098;DHT22;11215;51.938;8.464;2023-03-12T17:46:41;10.90;78.60
22098;DHT22;11215;51.938;8.464;2023-03-12T17:49:07;10.90;78.50
22098;DHT22;11215;51.938;8.464;2023-03-12T17:51:33;10.90;78.50
22098;DHT22;11215;51.938;8.464;2023-03-12T17:53:59;10.90;78.50
22098;DHT22;11215;51.938;8.464;2023-03-12T17:56:24;10.90;78.40
22098;DHT22;11215;51.938;8.464;2023-03-12T17:58:50;10.90;79.30
22098;DHT22;11215;51.938;8.464;2023-03-12T18:01:16;10.90;78.60
22098;DHT22;11215;51.938;8.464;2023-03-12T18:03:42;10.90;78.70
22098;DHT22;11215;51.938;8.464;2023-03-12T18:06:09;10.90;78.80
22098;DHT22;11215;51.938;8.464;2023-03-12T18:08:35;10.90;78.80
22098;DHT22;11215;51.938;8.464;2023-03-12T18:11:01;10.90;79.00
22098;DHT22;11215;51.938;8.464;2023-03-12T18:13:28;11.00;79.10
22098;DHT22;11215;51.938;8.464;2023-03-12T18:15:55;11.00;79.10
22098;DHT22;11215;51.938;8.464;2023-03-12T18:18:22;11.00;79.10
22098;DHT22;11215;51.938;8.464;2023-03-12T18:20:47;11.00;79.00
22098;DHT22;11215;51.938;8.464;2023-03-12T18:23:14;11.10;79.00
22098;DHT22;11215;51.938;8.464;2023-03-12T18:25:40;11.10;79.10
22098;DHT22;11215;51.938;8.464;2023-03-12T18:28:06;11.10;79.10
22098;DHT22;11215;51.938;8.464;2023-03-12T18:30:31;11.10;79.10
22098;DHT22;11215;51.938;8.464;2023-03-12T18:32:57;11.20;79.10
22098;DHT22;11215;51.938;8.464;2023-03-12T18:35:24;11.20;79.00
22098;DHT22;11215;51.938;8.464;2023-03-12T18:37:54;11.20;79.00
22098;DHT22;11215;51.938;8.464;2023-03-12T18:40:20;11.20;78.90
22098;DHT22;11215;51.938;8.464;2023-03-12T18:42:46;11.20;78.80
22098;DHT22;11215;51.938;8.464;2023-03-12T18:45:11;11.20;79.50
22098;DHT22;11215;51.938;8.464;2023-03-12T18:48:11;11.20;78.60
22098;DHT22;11215;51.938;8.464;2023-03-12T18:50:37;11.20;79.00
22098;DHT22;11215;51.938;8.464;2023-03-12T18:53:03;11.20;78.50
22098;DHT22;11215;51.938;8.464;2023-03-12T18:55:30;11.20;78.40
22098;DHT22;11215;51.938;8.464;2023-03-12T18:57:56;11.20;78.50
22098;DHT22;11215;51.938;8.464;2023-03-12T19:00:22;11.20;78.40
22098;DHT22;11215;51.938;8.464;2023-03-12T19:02:47;11.20;78.50
22098;DHT22;11215;51.938;8.464;2023-03-12T19:05:13;11.20;78.40
22098;DHT22;11215;51.938;8.464;2023-03-12T19:07:39;11.20;78.40
22098;DHT22;11215;51.938;8.464;2023-03-12T19:10:06;11.10;78.30
22098;DHT22;11215;51.938;8.464;2023-03-12T19:12:31;11.10;78.30
22098;DHT22;11215;51.938;8.464;2023-03-12T19:14:57;11.10;78.30
22098;DHT22;11215;51.938;8.464;2023-03-12T19:17:23;11.10;78.20
22098;DHT22;11215;51.938;8.464;2023-03-12T19:19:49;11.10;78.20
22098;DHT22;11215;51.938;8.464;2023-03-12T19:22:15;11.10;78.20
22098;DHT22;11215;51.938;8.464;2023-03-12T19:24:41;11.10;78.30
22098;DHT22;11215;51.938;8.464;2023-03-12T19:27:07;11.10;78.40
22098;DHT22;11215;51.938;8.464;2023-03-12T19:29:33;11.10;78.40
22098;DHT22;11215;51.938;8.464;2023-03-12T19:31:59;11.10;78.40
22098;DHT22;11215;51.938;8.464;2023-03-12T19:34:24;11.10;78.40
22098;DHT22;11215;51.938;8.464;2023-03-12T19:36:50;11.10;78.30
22098;DHT22;11215;51.938;8.464;2023-03-12T19:39:16;11.00;78.20
22098;DHT22;11215;51.938;8.464;2023-03-12T19:41:41;11.10;78.20
22098;DHT22;11215;51.938;8.464;2023-03-12T19:44:07;11.10;78.10
22098;DHT22;11215;51.938;8.464;2023-03-12T19:46:33;11.10;78.10
22098;DHT22;11215;51.938;8.464;2023-03-12T19:48:58;11.10;78.20
22098;DHT22;11215;51.938;8.464;2023-03-12T19:51:24;11.10;78.10
22098;DHT22;11215;51.938;8.464;2023-03-12T19:53:50;11.10;78.00
22098;DHT22;11215;51.938;8.464;2023-03-12T19:56:16;11.10;77.90
22098;DHT22;11215;51.938;8.464;2023-03-12T19:58:42;11.10;77.90
22098;DHT22;11215;51.938;8.464;2023-03-12T20:01:08;11.10;77.80
22098;DHT22;11215;51.938;8.464;2023-03-12T20:03:34;11.10;77.60
22098;DHT22;11215;51.938;8.464;2023-03-12T20:06:00;11.10;77.50
22098;DHT22;11215;51.938;8.464;2023-03-12T20:08:25;11.20;77.50
22098;DHT22;11215;51.938;8.464;2023-03-12T20:11:05;11.20;77.50
22098;DHT22;11215;51.938;8.464;2023-03-12T20:13:31;11.20;77.30
22098;DHT22;11215;51.938;8.464;2023-03-12T20:15:56;11.20;77.20
22098;DHT22;11215;51.938;8.464;2023-03-12T20:18:22;11.20;77.20
22098;DHT22;11215;51.938;8.464;2023-03-12T20:20:48;11.20;77.30
22098;DHT22;11215;51.938;8.464;2023-03-12T20:23:13;11.30;77.00
22098;DHT22;11215;51.938;8.464;2023-03-12T20:25:39;11.30;76.90
22098;DHT22;11215;51.938;8.464;2023-03-12T20:28:06;11.30;76.80
22098;DHT22;11215;51.938;8.464;2023-03-12T20:30:34;11.30;76.80
22098;DHT22;11215;51.938;8.464;2023-03-12T20:33:00;11.30;76.70
22098;DHT22;11215;51.938;8.464;2023-03-12T20:35:26;11.30;76.70
22098;DHT22;11215;51.938;8.464;2023-03-12T20:37:51;11.40;76.50
22098;DHT22;11215;51.938;8.464;2023-03-12T20:40:17;11.40;76.50
22098;DHT22;11215;51.938;8.464;2023-03-12T20:42:43;11.40;76.40
22098;DHT22;11215;51.938;8.464;2023-03-12T20:45:09;11.40;76.30
22098;DHT22;11215;51.938;8.464;2023-03-12T20:47:34;11.40;76.20
22098;DHT22;11215;51.938;8.464;2023-03-12T20:50:02;11.40;76.10
22098;DHT22;11215;51.938;8.464;2023-03-12T20:52:28;11.40;76.10
22098;DHT22;11215;51.938;8.464;2023-03-12T20:54:53;11.40;76.10
22098;DHT22;11215;51.938;8.464;2023-03-12T20:57:19;11.40;76.10
22098;DHT22;11215;51.938;8.464;2023-03-12T20:59:45;11.40;76.00
22098;DHT22;11215;51.938;8.464;2023-03-12T21:02:12;11.40;75.90
22098;DHT22;11215;51.938;8.464;2023-03-12T21:04:38;11.40;75.90
22098;DHT22;11215;51.938;8.464;2023-03-12T21:07:03;11.40;75.80
22098;DHT22;11215;51.938;8.464;2023-03-12T21:09:29;11.40;75.80
22098;DHT22;11215;51.938;8.464;2023-03-12T21:11:55;11.50;75.80
22098;DHT22;11215;51.938;8.464;2023-03-12T21:14:20;11.40;75.60
22098;DHT22;11215;51.938;8.464;2023-03-12T21:16:46;11.40;75.50
22098;DHT22;11215;51.938;8.464;2023-03-12T21:19:12;11.40;75.50
22098;DHT22;11215;51.938;8.464;2023-03-12T21:21:37;11.40;75.40
22098;DHT22;11215;51.938;8.464;2023-03-12T21:24:03;11.40;75.50
22098;DHT22;11215;51.938;8.464;2023-03-12T21:26:29;11.40;75.50
22098;DHT22;11215;51.938;8.464;2023-03-12T21:28:54;11.40;75.60
22098;DHT22;11215;51.938;8.464;2023-03-12T21:31:20;11.40;75.50
22098;DHT22;11215;51.938;8.464;2023-03-12T21:33:46;11.40;75.60
22098;DHT22;11215;51.938;8.464;2023-03-12T21:36:13;11.40;75.60
22098;DHT22;11215;51.938;8.464;2023-03-12T21:38:39;11.40;75.60
22098;DHT22;11215;51.938;8.464;2023-03-12T21:41:09;11.40;75.60
22098;DHT22;11215;51.938;8.464;2023-03-12T21:43:35;11.40;75.50
22098;DHT22;11215;51.938;8.464;2023-03-12T21:46:12;11.40;75.50
22098;DHT22;11215;51.938;8.464;2023-03-12T21:48:42;11.40;75.40
22098;DHT22;11215;51.938;8.464;2023-03-12T21:51:09;11.40;75.50
22098;DHT22;11215;51.938;8.464;2023-03-12T21:53:35;11.40;75.50
22098;DHT22;11215;51.938;8.464;2023-03-12T21:56:02;11.40;75.50
22098;DHT22;11215;51.938;8.464;2023-03-12T21:58:29;11.40;75.30
22098;DHT22;11215;51.938;8.464;2023-03-12T22:03:31;11.50;75.40
22098;DHT22;11215;51.938;8.464;2023-03-12T22:05:56;11.50;75.30
22098;DHT22;11215;51.938;8.464;2023-03-12T22:08:22;11.40;75.30